Map

Track Data

SID SEASON NUMBER BASIN SUBBASIN NAME ISO_TIME NATURE LAT LON WMO_WIND WMO_PRES WMO_AGENCY TRACK_TYPE DIST2LAND LANDFALL IFLAG USA_AGENCY USA_ATCF_ID USA_LAT USA_LON USA_RECORD USA_STATUS USA_WIND USA_PRES USA_SSHS USA_R34_NE USA_R34_SE USA_R34_SW USA_R34_NW USA_R50_NE USA_R50_SE USA_R50_SW USA_R50_NW USA_R64_NE USA_R64_SE USA_R64_SW USA_R64_NW USA_POCI USA_ROCI USA_RMW USA_EYE TOKYO_LAT TOKYO_LON TOKYO_GRADE TOKYO_WIND TOKYO_PRES TOKYO_R50_DIR TOKYO_R50_LONG TOKYO_R50_SHORT TOKYO_R30_DIR TOKYO_R30_LONG TOKYO_R30_SHORT TOKYO_LAND CMA_LAT CMA_LON CMA_CAT CMA_WIND CMA_PRES HKO_LAT HKO_LON HKO_CAT HKO_WIND HKO_PRES NEWDELHI_LAT NEWDELHI_LON NEWDELHI_GRADE NEWDELHI_WIND NEWDELHI_PRES NEWDELHI_CI NEWDELHI_DP NEWDELHI_POCI REUNION_LAT REUNION_LON REUNION_TYPE REUNION_WIND REUNION_PRES REUNION_TNUM REUNION_CI REUNION_RMW REUNION_R34_NE REUNION_R34_SE REUNION_R34_SW REUNION_R34_NW REUNION_R50_NE REUNION_R50_SE REUNION_R50_SW REUNION_R50_NW REUNION_R64_NE REUNION_R64_SE REUNION_R64_SW REUNION_R64_NW BOM_LAT BOM_LON BOM_TYPE BOM_WIND BOM_PRES BOM_TNUM BOM_CI BOM_RMW BOM_R34_NE BOM_R34_SE BOM_R34_SW BOM_R34_NW BOM_R50_NE BOM_R50_SE BOM_R50_SW BOM_R50_NW BOM_R64_NE BOM_R64_SE BOM_R64_SW BOM_R64_NW BOM_ROCI BOM_POCI BOM_EYE BOM_POS_METHOD BOM_PRES_METHOD NADI_LAT NADI_LON NADI_CAT NADI_WIND NADI_PRES WELLINGTON_LAT WELLINGTON_LON WELLINGTON_WIND WELLINGTON_PRES DS824_LAT DS824_LON DS824_STAGE DS824_WIND DS824_PRES TD9636_LAT TD9636_LON TD9636_STAGE TD9636_WIND TD9636_PRES TD9635_LAT TD9635_LON TD9635_WIND TD9635_PRES TD9635_ROCI NEUMANN_LAT NEUMANN_LON NEUMANN_CLASS NEUMANN_WIND NEUMANN_PRES MLC_LAT MLC_LON MLC_CLASS MLC_WIND MLC_PRES USA_GUST BOM_GUST BOM_GUST_PER REUNION_GUST REUNION_GUST_PER USA_SEAHGT USA_SEARAD_NE USA_SEARAD_SE USA_SEARAD_SW USA_SEARAD_NW STORM_SPEED STORM_DIR
1996137N13111 1996 38 WP MM CAM 1996-05-16 00:00:00 NR 13.0000 110.900 main 152 152 O_____________ jtwc_wp WP051996 13.0000 110.900 15 -1 3 42
1996137N13111 1996 38 WP MM CAM 1996-05-16 03:00:00 NR 13.1100 111.000 main 164 164 P_____________ WP051996 13.1100 111.000 15 -1 3 44
1996137N13111 1996 38 WP MM CAM 1996-05-16 06:00:00 NR 13.2000 111.100 main 176 176 O_____________ jtwc_wp WP051996 13.2000 111.100 15 -1 2 53
1996137N13111 1996 38 WP MM CAM 1996-05-16 09:00:00 NR 13.2575 111.200 main 189 189 P_____________ WP051996 13.2575 111.200 15 -1 2 63
1996137N13111 1996 38 WP MM CAM 1996-05-16 12:00:00 NR 13.3000 111.300 main 200 200 O_____________ jtwc_wp WP051996 13.3000 111.300 15 -1 2 65
1996137N13111 1996 38 WP MM CAM 1996-05-16 15:00:00 NR 13.3500 111.408 main 213 213 P_____________ WP051996 13.3500 111.408 15 -1 2 63
1996137N13111 1996 38 WP MM CAM 1996-05-16 18:00:00 NR 13.4000 111.500 main 223 223 O_____________ jtwc_wp WP051996 13.4000 111.500 15 -1 2 53
1996137N13111 1996 38 WP MM CAM 1996-05-16 21:00:00 NR 13.4500 111.550 main 234 234 P_____________ WP051996 13.4500 111.550 15 -1 1 43
1996137N13111 1996 38 WP MM CAM 1996-05-17 00:00:00 NR 13.5000 111.600 main 237 237 O_____________ jtwc_wp WP051996 13.5000 111.600 15 -1 2 56
1996137N13111 1996 38 WP MM CAM 1996-05-17 03:00:00 NR 13.5500 111.700 main 250 250 P_____________ WP051996 13.5500 111.700 15 -1 2 63
1996137N13111 1996 38 WP MM CAM 1996-05-17 06:00:00 NR 13.6000 111.800 main 261 261 O_____________ jtwc_wp WP051996 13.6000 111.800 15 -1 2 58
1996137N13111 1996 38 WP MM CAM 1996-05-17 09:00:00 NR 13.6425 111.850 main 271 271 P_____________ WP051996 13.6425 111.850 15 -1 1 43
1996137N13111 1996 38 WP MM CAM 1996-05-17 12:00:00 NR 13.7000 111.900 main 274 274 O_____________ jtwc_wp WP051996 13.7000 111.900 15 -1 2 44
1996137N13111 1996 38 WP MM CAM 1996-05-17 15:00:00 NR 13.7850 111.993 main 288 288 P_____________ WP051996 13.7850 111.993 15 -1 3 44
1996137N13111 1996 38 WP MM CAM 1996-05-17 18:00:00 NR 13.9000 112.100 main 302 302 O_____________ jtwc_wp WP051996 13.9000 112.100 15 -1 3 38
1996137N13111 1996 38 WP MM CAM 1996-05-17 21:00:00 NR 14.0425 112.200 main 313 313 P_____________ WP051996 14.0425 112.200 15 -1 4 33
1996137N13111 1996 38 WP MM CAM 1996-05-18 00:00:00 NR 14.2000 112.300 main 325 325 O_____________ jtwc_wp WP051996 14.2000 112.300 15 -1 4 32
1996137N13111 1996 38 WP MM CAM 1996-05-18 03:00:00 NR 14.3500 112.400 main 339 337 P_____________ WP051996 14.3500 112.400 17 -1 7 74
1996137N13111 1996 38 WP MM CAM 1996-05-18 06:00:00 TS 14.4000 113.000 1004 tokyo main 403 403 OOO___________ jtwc_wp WP051996 14.5000 112.500 20 -1 14.2000 114.000 2 1004 0 0 0 14.2000 114.000 1 29 1002 10 80
1996137N13111 1996 38 WP MM CAM 1996-05-18 09:00:00 TS 14.5288 113.414 main 447 447 PPP___________ WP051996 14.6500 112.600 20 -1 14.4076 114.227 2 1004 0 0 14.4076 114.227 1 29 1002 8 68
1996137N13111 1996 38 WP MM CAM 1996-05-18 12:00:00 TS 14.6800 113.720 1004 tokyo main 482 482 OOO___________ jtwc_wp WP051996 14.8000 112.700 20 -1 14.6000 114.400 2 1004 0 0 0 14.6000 114.400 1 29 1002 6 59
1996137N13111 1996 38 WP MM CAM 1996-05-18 15:00:00 TS 14.8241 113.915 main 505 505 PPP___________ WP051996 14.9425 112.785 22 -1 14.7650 114.480 2 1003 0 0 14.7650 114.480 1 29 1002 4 39
1996137N13111 1996 38 WP MM CAM 1996-05-18 18:00:00 TS 14.9667 113.967 1002 tokyo main 521 521 OOO___________ jtwc_wp WP051996 15.1000 112.900 25 -1 14.9000 114.500 2 1002 0 0 0 14.9000 114.500 1 29 1002 3 20
1996137N13111 1996 38 WP MM CAM 1996-05-18 21:00:00 TS 15.1025 114.023 main 523 523 PPP___________ WP051996 15.2925 113.070 25 -1 15.0075 114.500 2 1002 0 0 15.0075 114.500 1 29 1001 3 26
1996137N13111 1996 38 WP MM CAM 1996-05-19 00:00:00 TS 15.2333 114.100 1002 tokyo main 536 536 OOO___________ jtwc_wp WP051996 15.5000 113.300 25 -1 15.1000 114.500 2 1002 0 0 0 15.1000 114.500 1 29 1000 3 38
1996137N13111 1996 38 WP MM CAM 1996-05-19 03:00:00 TS 15.3542 114.228 main 547 547 PPP___________ WP051996 15.6925 113.585 25 -1 15.1850 114.550 2 1002 0 0 15.1850 114.550 1 29 1000 4 44
1996137N13111 1996 38 WP MM CAM 1996-05-19 06:00:00 TS 15.5000 114.367 1002 tokyo main 555 547 OOO___________ jtwc_wp WP051996 15.9000 113.900 25 -1 15.3000 114.600 2 1002 0 0 0 15.3000 114.600 1 29 1000 4 33
1996137N13111 1996 38 WP MM CAM 1996-05-19 09:00:00 TS 15.7117 114.469 main 548 534 PPP___________ WP051996 16.1500 114.207 25 -1 15.4925 114.600 2 1001 0 0 15.4925 114.600 1 29 1000 5 13
1996137N13111 1996 38 WP MM CAM 1996-05-19 12:00:00 TS 15.9615 114.477 1000 tokyo main 527 520 OOOO__________ jtwc_wp WP051996 16.4000 114.500 25 -1 15.7000 114.600 2 1000 0 0 0 15.7000 114.600 1 29 1000 16.3000 113.400 TD 25 1000 4 7
1996137N13111 1996 38 WP MM CAM 1996-05-19 15:00:00 TS 16.1457 114.529 main 520 514 PPPP__________ WP051996 16.6150 114.765 27 -1 15.8425 114.620 2 1000 0 0 15.8425 114.628 1 29 1000 16.4200 113.678 TD 25 1000 4 23
1996137N13111 1996 38 WP MM CAM 1996-05-19 18:00:00 TS 16.3333 114.640 1000 tokyo main 516 514 OOOO__________ jtwc_wp WP051996 16.8000 115.000 30 -1 16.0000 114.700 2 1000 0 0 0 16.0000 114.700 1 29 1000 16.6000 114.000 TD 25 1000 5 35
1996137N13111 1996 38 WP MM CAM 1996-05-19 21:00:00 TS 16.5669 114.832 main 517 498 PPPP__________ WP051996 16.9500 115.215 30 -1 16.2200 114.878 2 1000 0 0 16.2200 114.842 1 31 999 16.8775 114.392 TD 27 999 6 40
1996137N13111 1996 38 WP MM CAM 1996-05-20 00:00:00 TS 16.8250 115.075 1000 tokyo main 498 484 OOOO__________ jtwc_wp WP051996 17.1000 115.400 30 -1 16.5000 115.100 2 1000 0 0 0 16.5000 115.000 2 34 998 17.2000 114.800 TD 30 998 7 37
1996137N13111 1996 38 WP MM CAM 1996-05-20 03:00:00 TS 17.1231 115.275 main 484 473 PPPP__________ WP051996 17.2925 115.558 32 -1 16.8425 115.300 2 1000 0 0 16.8424 115.070 2 34 998 17.5150 115.173 TD 30 998 7 32
1996137N13111 1996 38 WP MM CAM 1996-05-20 06:00:00 TS 17.4250 115.475 1000 tokyo main 473 459 OOOO__________ jtwc_wp WP051996 17.5000 115.700 35 0 17.2000 115.500 2 1000 0 0 0 17.2000 115.200 2 34 998 17.8000 115.500 TD 30 998 7 36
1996137N13111 1996 38 WP MM CAM 1996-05-20 09:00:00 TS 17.6975 115.714 main 463 447 PPPP__________ WP051996 17.7150 115.850 35 0 17.5225 115.708 2 999 0 0 17.5226 115.520 2 36 996 18.0299 115.780 TD 32 997 7 42
1996137N13111 1996 38 WP MM CAM 1996-05-20 12:00:00 TS 17.9250 115.950 35 998 tokyo main 441 436 OOOO__________ jtwc_wp WP051996 17.9000 116.000 35 0 17.8000 115.900 3 35 998 0 9 90 90 0 17.8000 115.900 2 38 995 18.2000 116.000 TS 35 996 6 46
1996137N13111 1996 38 WP MM CAM 1996-05-20 15:00:00 TS 18.0937 116.141 main 441 428 PPPP__________ WP051996 18.0074 116.128 37 0 18.0300 116.065 3 37 996 0 9 105 105 18.0224 116.200 2 38 995 18.3150 116.173 TS 35 996 5 50
1996137N13111 1996 38 WP MM CAM 1996-05-20 18:00:00 TS 18.2250 116.325 40 994 tokyo main 428 409 OOOO__________ jtwc_wp WP051996 18.1000 116.300 40 0 18.2000 116.200 3 40 994 0 9 120 120 0 18.2000 116.500 2 38 995 18.4000 116.300 TS 35 996 5 55
1996137N13111 1996 38 WP MM CAM 1996-05-20 21:00:00 TS 18.3519 116.528 main 411 391 PPPP__________ WP051996 18.2425 116.577 42 0 18.3075 116.300 3 40 994 0 9 120 120 18.3574 116.835 2 38 995 18.5000 116.400 TS 35 996 5 58
1996137N13111 1996 38 WP MM CAM 1996-05-21 00:00:00 TS 18.4750 116.750 40 994 tokyo main 383 366 OOOO__________ jtwc_wp WP051996 18.4000 116.900 45 0 18.4000 116.400 3 40 994 0 9 120 120 0 18.5000 117.200 2 38 995 18.6000 116.500 TS 35 996 5 59
1996137N13111 1996 38 WP MM CAM 1996-05-21 03:00:00 TS 18.6087 116.985 main 366 349 PPPP__________ WP051996 18.5424 117.193 47 0 18.5499 116.520 3 40 994 0 9 120 120 18.6425 117.593 2 38 995 18.7000 116.635 TS 35 996 5 60
1996137N13111 1996 38 WP MM CAM 1996-05-21 06:00:00 TS 18.7500 117.250 40 994 tokyo main 344 328 OOOO__________ jtwc_wp WP051996 18.7000 117.500 50 0 18.7000 116.700 3 40 994 0 9 120 120 0 18.8000 118.000 2 38 995 18.8000 116.800 TS 35 996 6 61
1996137N13111 1996 38 WP MM CAM 1996-05-21 09:00:00 TS 18.9037 117.549 main 328 292 PPPP__________ WP051996 18.9000 117.842 50 0 18.8150 116.963 3 40 994 0 9 120 120 19.0000 118.407 2 41 992 18.9000 116.985 TS 35 996 7 63
1996137N13111 1996 38 WP MM CAM 1996-05-21 12:00:00 TS 19.0500 117.875 40 994 tokyo main 294 268 OOOO__________ jtwc_wp WP051996 19.1000 118.200 50 0 18.9000 117.300 3 40 994 0 9 120 120 0 19.2000 118.800 2 44 990 19.0000 117.200 TS 35 996 7 67
1996137N13111 1996 38 WP MM CAM 1996-05-21 15:00:00 TS 19.1643 118.203 main 268 238 PPPP__________ WP051996 19.2574 118.550 52 0 18.9500 117.685 3 40 994 0 9 120 120 19.3573 119.150 2 44 990 19.0924 117.428 TS 35 996 7 71
1996137N13111 1996 38 WP MM CAM 1996-05-21 18:00:00 TS 19.2750 118.550 40 994 tokyo main 233 210 OOOO__________ jtwc_wp WP051996 19.4000 118.900 55 0 19.0000 118.100 3 40 994 0 9 120 120 0 19.5000 119.500 2 44 990 19.2000 117.700 TS 35 996 7 70
1996137N13111 1996 38 WP MM CAM 1996-05-21 21:00:00 TS 19.4106 118.921 main 210 183 PPPP__________ WP051996 19.5574 119.250 55 0 19.0775 118.515 3 40 994 0 9 120 120 19.6575 119.900 2 44 990 19.3499 118.020 TS 35 996 8 69
1996137N13111 1996 38 WP MM CAM 1996-05-22 00:00:00 TS 19.5500 119.300 40 994 tokyo main 191 168 OOOO__________ jtwc_wp WP051996 19.7000 119.600 55 0 19.2000 118.900 3 40 994 0 9 120 120 0 19.8000 120.300 2 44 990 19.5000 118.400 TS 35 996 7 69
1996137N13111 1996 38 WP MM CAM 1996-05-22 03:00:00 TS 19.6749 119.663 main 168 155 PPPP__________ WP051996 19.7999 119.943 55 0 19.3923 119.208 3 40 994 0 9 120 120 19.9075 120.680 2 44 990 19.5999 118.820 TS 35 996 7 70
1996137N13111 1996 38 WP MM CAM 1996-05-22 06:00:00 TS 19.8000 120.025 40 994 tokyo main 158 148 OOOO__________ jtwc_wp WP051996 19.9000 120.300 55 0 19.6000 119.500 3 40 994 0 9 120 120 0 20.0000 121.000 2 44 990 19.7000 119.300 TS 35 996 7 70
1996137N13111 1996 38 WP MM CAM 1996-05-22 09:00:00 TS 19.9261 120.385 main 151 151 PPPP__________ WP051996 20.0349 120.685 55 0 19.7423 119.813 3 40 994 0 9 120 120 20.0923 121.208 2 44 990 19.8350 119.835 TS 35 996 8 69
1996137N13111 1996 38 WP MM CAM 1996-05-22 12:00:00 TS 20.0750 120.775 40 994 tokyo main 167 167 OOOO__________ jtwc_wp WP051996 20.2000 121.100 55 0 19.9000 120.200 3 40 994 0 9 120 120 0 20.2000 121.400 2 44 990 20.0000 120.400 TS 35 996 9 67
1996137N13111 1996 38 WP MM CAM 1996-05-22 15:00:00 TS 20.2618 121.224 main 181 172 PPPP__________ WP051996 20.3924 121.543 57 0 20.1350 120.712 3 40 994 0 9 120 120 20.3351 121.693 2 46 990 20.1848 120.950 TS 35 996 10 65
1996137N13111 1996 38 WP MM CAM 1996-05-22 18:00:00 TS 20.4750 121.700 40 994 tokyo main 177 177 OOOO__________ jtwc_wp WP051996 20.6000 122.000 60 0 20.4000 121.300 3 40 994 0 9 120 120 0 20.5000 122.000 3 48 990 20.4000 121.500 TS 35 996 10 64
1996137N13111 1996 38 WP MM CAM 1996-05-22 21:00:00 TS 20.6829 122.152 main 190 190 PPPP__________ WP051996 20.7923 122.443 60 0 20.6424 121.900 3 40 994 0 9 120 120 20.6772 122.213 3 48 990 20.6198 122.050 TS 35 996 10 63
1996137N13111 1996 38 WP MM CAM 1996-05-23 00:00:00 TS 20.9250 122.625 40 994 tokyo main 208 208 OOOO__________ jtwc_wp WP051996 21.0000 122.900 60 0 20.9000 122.500 3 40 994 0 9 120 120 0 20.9000 122.500 3 48 990 20.9000 122.600 TS 35 996 11 60
1996137N13111 1996 38 WP MM CAM 1996-05-23 03:00:00 TS 21.2352 123.155 main 250 247 PPPP__________ WP051996 21.2574 123.392 57 0 21.2135 123.067 3 40 994 0 9 135 135 21.1852 123.012 3 46 990 21.2848 123.150 TS 35 996 12 58
1996137N13111 1996 38 WP MM CAM 1996-05-23 06:00:00 TS 21.5500 123.700 40 994 tokyo main 289 289 OOOO__________ jtwc_wp WP051996 21.5000 123.900 55 0 21.5000 123.600 3 40 994 0 9 150 150 0 21.5000 123.600 2 44 990 21.7000 123.700 TS 35 996 11 59
1996137N13111 1996 38 WP MM CAM 1996-05-23 09:00:00 TS 21.8013 124.181 40 994 tokyo main 322 322 POPP__________ WP051996 21.6720 124.363 52 0 21.7000 124.100 3 40 994 0 9 150 150 0 21.7760 124.011 2 44 990 22.0573 124.250 TS 35 996 11 61
1996137N13111 1996 38 WP MM CAM 1996-05-23 12:00:00 TS 22.0750 124.700 40 994 tokyo main 356 356 OOOO__________ jtwc_wp WP051996 21.8000 124.900 50 0 22.0000 124.500 3 40 994 0 9 150 150 0 22.1000 124.600 2 44 990 22.4000 124.800 TS 35 996 14 65
1996137N13111 1996 38 WP MM CAM 1996-05-23 15:00:00 TS 22.4024 125.545 40 996 tokyo main 427 427 POPP__________ WP051996 21.9300 125.605 45 0 22.4000 125.500 3 40 996 0 9 120 120 0 22.5372 125.726 2 36 995 22.7423 125.350 TS 32 998 19 67
1996137N13111 1996 38 WP MM CAM 1996-05-23 18:00:00 TS 22.8071 126.579 1000 tokyo main 514 514 OOOO__________ jtwc_wp WP051996 22.0000 126.400 40 0 23.0000 126.900 2 1000 0 0 0 23.0000 126.900 1 29 1000 23.1000 125.900 TD 30 1000 18 64
1996137N13111 1996 38 WP MM CAM 1996-05-23 21:00:00 TS 23.2150 127.343 main 567 567 PPPP__________ WP051996 21.9781 127.203 35 0 23.4983 127.644 2 1002 0 0 23.4125 127.559 1 29 1002 23.4904 126.449 TD 30 1000 16 58
1996137N13111 1996 38 WP MM CAM 1996-05-24 00:00:00 TS 23.6600 128.060 1004 tokyo main 634 634 OOOO__________ jtwc_wp WP051996 21.9000 128.000 30 -1 23.9000 128.200 2 1004 0 0 0 23.8000 128.200 1 29 1004 23.9000 127.000 TD 30 1000 20 61
1996137N13111 1996 38 WP MM CAM 1996-05-24 03:00:00 TS 24.2026 129.277 main 742 726 _PP___________ WP051996 -1 24.2313 129.277 2 1004 0 0 24.1738 129.277 1 29 1004 TD 23 69
1996137N13111 1996 38 WP MM CAM 1996-05-24 06:00:00 TS 24.5000 130.400 1004 tokyo main 726 693 _OO___________ -1 24.5000 130.400 2 1004 0 0 0 24.5000 130.400 1 29 1004 19 72
1996137N13111 1996 38 WP MM CAM 1996-05-24 09:00:00 TS 24.7791 131.272 main 694 680 _PP___________ -1 24.7944 131.290 2 1005 0 0 24.7639 131.253 1 29 1005 15 71
1996137N13111 1996 38 WP MM CAM 1996-05-24 12:00:00 MX 25.0000 132.000 1006 tokyo main 681 677 _OO___________ -1 25.0000 132.000 6 1006 0 0 0 25.0000 132.000 1 29 1006 13 75
1996137N13111 1996 38 WP MM CAM 1996-05-24 15:00:00 MX 25.1052 132.615 main 684 682 _PP___________ -1 24.9608 132.472 6 1006 0 0 25.2495 132.758 1 26 1006 12 78
1996137N13111 1996 38 WP MM CAM 1996-05-24 18:00:00 MX 25.2500 133.250 1006 tokyo main 685 679 _OO___________ -1 25.0000 133.000 6 1006 0 0 0 25.5000 133.500 1 23 1006 15 69
1996137N13111 1996 38 WP MM CAM 1996-05-24 21:00:00 MX 25.6447 134.142 main 688 683 _PP___________ -1 25.5019 133.996 6 1008 0 0 25.7876 134.287 1 23 1007 17 65
1996137N13111 1996 38 WP MM CAM 1996-05-25 00:00:00 MX 26.0000 135.000 1010 tokyo main 697 697 _OO___________ -1 26.0000 135.000 6 1010 0 0 0 26.0000 135.000 1 23 1008 14 72
1996137N13111 1996 38 WP MM CAM 1996-05-25 03:00:00 MX 26.0658 135.568 main 719 719 _PP___________ -1 26.0738 135.577 6 1010 0 0 26.0499 135.551 1 23 1008 9 90
1996137N13111 1996 38 WP MM CAM 1996-05-25 06:00:00 MX 26.0000 136.000 1010 tokyo main 750 750 _OO___________ -1 26.0000 136.000 6 1010 0 0 0 26.0000 136.000 1 23 1008 8 95
1996137N13111 1996 38 WP MM CAM 1996-05-25 09:00:00 ET 25.9998 136.500 main 780 780 _P____________ -1 25.9998 136.500 6 1011 0 0 1 9 90
1996137N13111 1996 38 WP MM CAM 1996-05-25 12:00:00 ET 26.0000 137.000 1012 tokyo main 812 812 _O____________ -1 26.0000 137.000 6 1012 0 0 0 9 95
1996137N13111 1996 38 WP MM CAM 1996-05-25 15:00:00 ET 25.9248 137.501 main 852 850 _P____________ -1 25.9248 137.501 6 1011 0 0 9 90
1996137N13111 1996 38 WP MM CAM 1996-05-25 18:00:00 ET 26.0000 138.000 1010 tokyo main 852 823 _O____________ -1 26.0000 138.000 6 1010 0 0 0 10 62
1996137N13111 1996 38 WP MM CAM 1996-05-25 21:00:00 ET 26.4004 138.498 main 823 777 _P____________ -1 26.4004 138.498 6 1011 0 0 13 42
1996137N13111 1996 38 WP MM CAM 1996-05-26 00:00:00 ET 27.0000 139.000 1012 tokyo main 777 _O____________ -1 27.0000 139.000 6 1012 0 0 0 15 37

Digital Typhoon Data and Search

About IBTrACS Database

This database is a web-friendly format of International Best Track Archive for Climate Stewardship (IBTrACS), a global best track data archive curated by NOAA dating back to 1842.

Updated: 2021-12-03